KPOV

Portage County Airport

Ravenna, Ohio, USA
METAR KPOV 212336Z AUTO 05004KT 10SM CLR 23/15 A2983 RMK AO2 T02300146 PWINO
Observed Flight Rules
Jun-21 @ 23:36 UTC (21 minutes ago) Visual Flight Rules
Wind Visibility Clouds
50° at 4 knots 10 miles
  • Clear skies
Temperatures Readings
Current 23°C / 73°F
Dewpoint 15°C / 59°F
Humidity 61%
Altimeter 29.83" Hg
Pressure 1010 hPa
Elevation 365
METAR KPOV 212336Z AUTO 05004KT 10SM CLR 23/15 A2983 RMK AO2 T02300146 PWINO
Observed Flight Rules
Jun-21 @ 23:36 UTC
(21 minutes ago)
VFR
Wind Visibility
50° at 4 knots 10 miles
Clouds
  • Clear skies
Temperature Dewpoint
23°C / 73°F 15°C / 59°F
Humidity Altimeter Pressure
61% 29.83" Hg 1010 hPa